< < Back
Terminal Aerodrome Forecast


Current Version              Previous Versions:   1  2  3  4  5  6  7  8  9  

Terminal Aerodrome Forecast

106
FTUS42 KGSP 270540
TAFCLT
TAF
KCLT 270540Z 2706/2806 16003KT P6SM BKN090
     FM271400 28007KT P6SM BKN080
     FM271600 30010KT P6SM SCT080
     FM280300 33006KT P6SM FEW250=

Latest METAR

999
SAUS70 KWBC 270800 RRA
MTRCLT
METAR KCLT 270752Z 00000KT 10SM BKN070 OVC085 06/M01 A3000 RMK AO2
SLP158 T00611011


USA.gov is the U.S. government's official web portal to all federal, state and local government web resources and services.